Sedov — UELO — position and weather

sailwx.info

Track history (hours):
 
Tides and Currents Weather Stations Pressure Air Temp Water Temp Dewpoint Dewpoint Depression Visibility Wind Speed Wind Dir Waves Ship Positions

Sedov (Russia)

Last reported at 2019-Apr-26 03:31 UTC. Time now 2019-Apr-26 03:42 UTC.
Position N 54°45' E 013°19'.

Length 118 m; draft 6.4 m.

Type: Sailing vessel. MMSI: 273510000.

Date/timePositionNaut miles runAvg speedWind from/ knotsBaromVisibWave heightAir tempDewpointWater temp
2019-Apr-26 03:31N 54°45' E 013°19'1 1.3
2019-Apr-26 03:00N 54°45' E 013°20'1 1.2
2019-Apr-26 02:30N 54°45' E 013°21'1 1.1
2019-Apr-26 02:00N 54°46' E 013°21'0 0.9
2019-Apr-26 01:30N 54°46' E 013°22'0 0.9
2019-Apr-26 01:00N 54°47' E 013°22'0 0.8
2019-Apr-26 00:30N 54°47' E 013°23'0 0.9
2019-Apr-26 00:00N 54°47' E 013°23'0 0.8
2019-Apr-25 23:30N 54°47' E 013°24'0 0.8
2019-Apr-25 23:00N 54°47' E 013°25'0 0.9
2019-Apr-25 22:30N 54°47' E 013°26'0 0.9
2019-Apr-25 22:00N 54°48' E 013°26'1 1.2
2019-Apr-25 21:30N 54°48' E 013°27'1 1.7
2019-Apr-25 21:00N 54°49' E 013°28'1 2.2
2019-Apr-25 20:29N 54°48' E 013°29'3 6.7
2019-Apr-25 20:00N 54°45' E 013°26'1 1.2
2019-Apr-25 19:24N 54°44' E 013°27'0 1.1
2019-Apr-25 19:00N 54°44' E 013°27'1 1.1
2019-Apr-25 18:28N 54°44' E 013°28'0 0.9
2019-Apr-25 18:00N 54°44' E 013°29'0 0.7
2019-Apr-25 17:29N 54°45' E 013°30'0 0.6
2019-Apr-25 16:54N 54°45' E 013°30'21 1.2
2019-Apr-24 23:44N 54°43' E 012°53'2 5.5
2019-Apr-24 23:27N 54°43' E 012°51'2 5.6
2019-Apr-24 23:01N 54°43' E 012°46'3 5.3
2019-Apr-24 22:30N 54°43' E 012°42'2 5.1
2019-Apr-24 22:00N 54°43' E 012°37'2 4.4
2019-Apr-24 21:30N 54°42' E 012°34'1 1.4
2019-Apr-24 20:30N 54°41' E 012°35'1 1.2
2019-Apr-24 19:59N 54°40' E 012°36'1 1.2
2019-Apr-24 19:31N 54°40' E 012°36'2 4.3
2019-Apr-24 19:00N 54°39' E 012°33'3 5.1
2019-Apr-24 18:30N 54°37' E 012°29'3 5.1
2019-Apr-24 18:00N 54°36' E 012°25'3 5.7
2019-Apr-24 17:30N 54°36' E 012°20'4 3.5
2019-Apr-24 16:29N 54°36' E 012°14'1 2.1
2019-Apr-24 16:00N 54°35' E 012°14'1 2.8
2019-Apr-24 15:30N 54°34' E 012°15'2 2.2
2019-Apr-24 14:30N 54°32' E 012°16'1 2.0
2019-Apr-24 13:58N 54°31' E 012°16'1 2.3
2019-Apr-24 13:25N 54°30' E 012°17'2 3.7
2019-Apr-24 13:00N 54°28' E 012°15'1 1.5
2019-Apr-24 12:30N 54°28' E 012°14'1 2.4
2019-Apr-24 12:00N 54°27' E 012°13'4 3.2
2019-Apr-24 10:45N 54°24' E 012°08'1 5.5
2019-Apr-24 10:30N 54°24' E 012°05'5 5.8
2019-Apr-24 09:43N 54°25' E 011°57'1 5.4
2019-Apr-24 09:30N 54°25' E 011°55'3 5.8
2019-Apr-24 08:59N 54°25' E 011°50'3 5.7
2019-Apr-24 08:31N 54°25' E 011°46'3 5.7
2019-Apr-24 08:00N 54°25' E 011°41'6 6.0
2019-Apr-24 07:03N 54°26' E 011°31'0 5.4
2019-Apr-24 06:59N 54°26' E 011°30'1 1.4
2019-Apr-24 06:30N 54°26' E 011°29'1 1.4
2019-Apr-24 05:59N 54°26' E 011°30'1 1.4
2019-Apr-24 05:31N 54°25' E 011°31'1 1.3
2019-Apr-24 05:00N 54°25' E 011°32'1 1.3
2019-Apr-24 04:30N 54°25' E 011°33'1 1.3
2019-Apr-24 04:00N 54°24' E 011°33'1 1.3
2019-Apr-24 03:30N 54°24' E 011°34'1 1.3
2019-Apr-24 03:00N 54°23' E 011°35'1 1.4
2019-Apr-24 02:30N 54°22' E 011°35'1 1.3
2019-Apr-24 02:01N 54°22' E 011°36'1 1.6
2019-Apr-24 01:30N 54°21' E 011°36'1 1.6
2019-Apr-24 01:00N 54°20' E 011°37'1 1.5
2019-Apr-24 00:30N 54°20' E 011°37'1 1.5
2019-Apr-23 23:59N 54°19' E 011°38'0 0.7
2019-Apr-23 23:30N 54°19' E 011°37'3 5.5
2019-Apr-23 23:00N 54°21' E 011°34'3 5.8
2019-Apr-23 22:30N 54°23' E 011°31'3 4.9
2019-Apr-23 21:58N 54°25' E 011°28'0 1.1
2019-Apr-23 21:31N 54°25' E 011°29'1 2.0
2019-Apr-23 21:00N 54°24' E 011°30'1 2.0
2019-Apr-23 20:27N 54°24' E 011°31'1 2.0
2019-Apr-23 19:59N 54°23' E 011°32'2 1.9
2019-Apr-23 19:04N 54°21' E 011°33'0 1.9
2019-Apr-23 19:00N 54°21' E 011°33'1 2.0
2019-Apr-23 18:30N 54°20' E 011°34'1 1.8
2019-Apr-23 17:59N 54°19' E 011°35'1 1.9
2019-Apr-23 17:30N 54°19' E 011°36'2 3.8
2019-Apr-23 16:55N 54°19' E 011°32'2 4.8
2019-Apr-23 16:29N 54°20' E 011°29'2 4.1
2019-Apr-23 16:01N 54°21' E 011°26'2 3.9
2019-Apr-23 15:30N 54°22' E 011°23'1 1.2
2019-Apr-23 14:59N 54°21' E 011°23'1 2.4
2019-Apr-23 14:29N 54°21' E 011°25'1 2.0
2019-Apr-23 14:00N 54°20' E 011°27'1 1.9
2019-Apr-23 13:30N 54°20' E 011°29'1 1.8
2019-Apr-23 13:01N 54°20' E 011°30'1 1.7
2019-Apr-23 12:30N 54°20' E 011°32'1 1.6
2019-Apr-23 12:00N 54°20' E 011°33'1 1.6
2019-Apr-23 11:30N 54°20' E 011°34'1 1.6
2019-Apr-23 11:01N 54°20' E 011°35'1 1.6
2019-Apr-23 10:30N 54°19' E 011°37'1 1.7
2019-Apr-23 10:00N 54°19' E 011°38'1 1.7
2019-Apr-23 09:30N 54°19' E 011°40'5 3.5
2019-Apr-23 08:12N 54°19' E 011°32'1 4.3
2019-Apr-23 07:53N 54°19' E 011°30'2 4.1
2019-Apr-23 07:30N 54°19' E 011°27'2 4.0
2019-Apr-23 07:00N 54°19' E 011°23'1 1.1
2019-Apr-23 06:30N 54°19' E 011°23'1 1.2
2019-Apr-23 06:00N 54°19' E 011°24'1 1.2
2019-Apr-23 05:31N 54°20' E 011°24'1 1.2
2019-Apr-23 05:00N 54°20' E 011°25'1 1.2
2019-Apr-23 04:31N 54°20' E 011°26'1 1.2
2019-Apr-23 04:00N 54°20' E 011°27'1 1.2
2019-Apr-23 03:30N 54°20' E 011°28'1 1.2
2019-Apr-23 02:59N 54°21' E 011°29'1 1.2
2019-Apr-23 02:30N 54°21' E 011°30'1 1.5
2019-Apr-23 02:00N 54°21' E 011°31'1 1.9
2019-Apr-23 01:30N 54°22' E 011°32'3 5.9
2019-Apr-23 00:59N 54°19' E 011°33'3 5.3
2019-Apr-23 00:30N 54°16' E 011°34'1 2.1
2019-Apr-23 00:01N 54°16' E 011°36'1 1.7
2019-Apr-22 23:30N 54°17' E 011°37'2 3.2
2019-Apr-22 23:00N 54°18' E 011°39'2 3.0
2019-Apr-22 22:30N 54°19' E 011°41'1 2.3
2019-Apr-22 22:00N 54°19' E 011°43'1 2.2
2019-Apr-22 21:30N 54°18' E 011°44'1 2.0
2019-Apr-22 21:00N 54°17' E 011°45'1 2.1
2019-Apr-22 20:30N 54°17' E 011°47'2 1.7
2019-Apr-22 19:30N 54°16' E 011°49'1 1.5
2019-Apr-22 18:59N 54°16' E 011°50'1 1.6
2019-Apr-22 18:30N 54°16' E 011°52'1 1.5
2019-Apr-22 18:00N 54°16' E 011°53'1 1.5
2019-Apr-22 17:30N 54°16' E 011°54'1 1.5
2019-Apr-22 17:00N 54°16' E 011°56'1 1.5
2019-Apr-22 16:30N 54°16' E 011°57'5 3.2
2019-Apr-22 15:00N 54°12' E 012°02'2 4.5
2019-Apr-22 14:30N 54°12' E 011°58'1 1.8
2019-Apr-22 14:00N 54°13' E 011°57'2 1.2
2019-Apr-22 12:45N 54°14' E 011°59'1 1.9
2019-Apr-22 12:28N 54°14' E 011°60'7 4.3
2019-Apr-22 10:57N 54°17' E 011°50'3 6.2
2019-Apr-22 10:29N 54°18' E 011°45'3 6.4
2019-Apr-22 09:59N 54°20' E 011°40'3 6.1
2019-Apr-22 09:30N 54°21' E 011°35'1 1.2
2019-Apr-22 08:59N 54°21' E 011°34'0 0.4
2019-Apr-22 08:30N 54°21' E 011°35'0 0.5
2019-Apr-22 08:00N 54°21' E 011°35'0 0.5
2019-Apr-22 07:30N 54°21' E 011°36'0 0.5
2019-Apr-22 07:00N 54°21' E 011°36'0 0.5
2019-Apr-22 06:29N 54°21' E 011°36'0 0.4
2019-Apr-22 05:58N 54°21' E 011°37'0 0.5
2019-Apr-22 05:30N 54°21' E 011°37'0 0.5
2019-Apr-22 04:59N 54°21' E 011°37'0 0.5
2019-Apr-22 04:30N 54°21' E 011°38'0 0.5
2019-Apr-22 04:00N 54°21' E 011°38'0 0.4
2019-Apr-22 03:30N 54°21' E 011°39'0 0.3
2019-Apr-22 03:00N 54°21' E 011°39'0 0.4
2019-Apr-22 02:30N 54°21' E 011°39'0 0.6
2019-Apr-22 02:00N 54°21' E 011°40'0 0.6
2019-Apr-22 01:29N 54°21' E 011°40'0 0.7
2019-Apr-22 00:59N 54°21' E 011°41'0 0.7
2019-Apr-22 00:30N 54°22' E 011°42'0 0.8
2019-Apr-22 00:00N 54°22' E 011°42'0 0.8
2019-Apr-21 23:30N 54°22' E 011°43'0 0.7
2019-Apr-21 23:00N 54°22' E 011°43'0 0.7
2019-Apr-21 22:30N 54°22' E 011°44'0 0.7
2019-Apr-21 21:59N 54°22' E 011°44'0 0.6
2019-Apr-21 21:30N 54°23' E 011°45'0 0.7
2019-Apr-21 21:00N 54°23' E 011°45'1 1.0
2019-Apr-21 20:30N 54°23' E 011°46'2 4.8
2019-Apr-21 20:00N 54°23' E 011°42'3 6.6
2019-Apr-21 19:30N 54°25' E 011°37'4 7.0
2019-Apr-21 19:00N 54°27' E 011°32'3 6.9
2019-Apr-21 18:30N 54°29' E 011°28'3 6.7
2019-Apr-21 17:59N 54°31' E 011°23'3 7.1
2019-Apr-21 17:30N 54°33' E 011°17'4 7.1
2019-Apr-21 17:00N 54°34' E 011°12'4 7.2
2019-Apr-21 16:30N 54°36' E 011°06'4 7.6
2019-Apr-21 16:00N 54°38' E 011°01'4 7.8
2019-Apr-21 15:29N 54°41' E 010°56'3 7.2
2019-Apr-21 15:00N 54°43' E 010°52'4 8.1
2019-Apr-21 14:30N 54°48' E 010°52'4 8.4
2019-Apr-21 14:00N 54°52' E 010°52'4 8.2
2019-Apr-21 13:30N 54°56' E 010°55'4 8.5
2019-Apr-21 13:00N 54°59' E 010°60'4 7.9
2019-Apr-21 12:30N 55°03' E 011°01'4 7.7
2019-Apr-21 12:00N 55°06' E 011°02'4 7.4
2019-Apr-21 11:30N 55°10' E 011°03'4 7.2
2019-Apr-21 10:59N 55°13' E 011°06'4 7.5
2019-Apr-21 10:29N 55°17' E 011°03'4 7.3
2019-Apr-21 09:59N 55°21' E 011°02'100 6.5
2019-Apr-20 18:37N 56°58' E 011°44'4 7.9
2019-Apr-20 18:04N 57°02' E 011°41'1 8.2
2019-Apr-20 18:00N 57°02' E 011°40'4 8.2
2019-Apr-20 17:30N 57°06' E 011°38'4 7.9
2019-Apr-20 16:59N 57°10' E 011°35'4 7.7
2019-Apr-20 16:30N 57°13' E 011°33'4 7.3
2019-Apr-20 16:00N 57°17' E 011°31'4 7.3
2019-Apr-20 15:30N 57°20' E 011°28'4 7.3
2019-Apr-20 14:59N 57°24' E 011°26'4 7.3
2019-Apr-20 14:30N 57°27' E 011°23'4 7.2
2019-Apr-20 14:00N 57°29' E 011°18'3 6.9
2019-Apr-20 13:30N 57°30' E 011°12'3 6.9
2019-Apr-20 13:00N 57°32' E 011°06'3 6.8
2019-Apr-20 12:30N 57°33' E 010°60'0 0.7
2019-Apr-20 12:00N 57°33' E 010°59'0 0.7
2019-Apr-20 11:30N 57°33' E 010°60'2 4.6
2019-Apr-20 10:59N 57°34' E 010°56'3 6.9
2019-Apr-20 10:30N 57°35' E 010°50'4 7.3
2019-Apr-20 09:59N 57°36' E 010°43'3 6.2
2019-Apr-20 09:30N 57°38' E 010°39'0 0.7
2019-Apr-20 08:59N 57°38' E 010°39'0 0.0
2019-Apr-20 08:29N 57°38' E 010°39'0 0.0
2019-Apr-20 07:53N 57°38' E 010°39'0 0.0
2019-Apr-20 07:29N 57°38' E 010°39'0 0.0
2019-Apr-20 06:59N 57°38' E 010°39'0 0.0
2019-Apr-20 06:29N 57°38' E 010°39'0 0.0
2019-Apr-20 05:59N 57°38' E 010°39'0 0.0
2019-Apr-20 05:26N 57°38' E 010°39'0 0.0
2019-Apr-20 04:56N 57°38' E 010°39'0 0.0
2019-Apr-20 04:29N 57°38' E 010°39'0 0.0
2019-Apr-20 03:59N 57°38' E 010°39'0 0.0
2019-Apr-20 03:29N 57°38' E 010°39'0 0.0
2019-Apr-20 02:59N 57°38' E 010°39'0 0.0
2019-Apr-20 02:29N 57°38' E 010°39'0 0.0
2019-Apr-20 01:59N 57°38' E 010°39'0 0.0
2019-Apr-20 01:28N 57°38' E 010°39'0 0.0
2019-Apr-20 00:59N 57°38' E 010°39'0 0.0
2019-Apr-20 00:28N 57°38' E 010°39'0 0.0
2019-Apr-19 23:59N 57°38' E 010°39'0 0.0
2019-Apr-19 23:29N 57°38' E 010°39'0 0.0
2019-Apr-19 22:59N 57°38' E 010°39'0 0.0
2019-Apr-19 22:29N 57°38' E 010°39'0 0.0
2019-Apr-19 21:59N 57°38' E 010°39'0 0.0
2019-Apr-19 21:29N 57°38' E 010°39'0 0.0
2019-Apr-19 20:59N 57°38' E 010°39'0 0.0
2019-Apr-19 20:29N 57°38' E 010°39'0 0.0
2019-Apr-19 19:59N 57°38' E 010°39'0 0.0
2019-Apr-19 19:29N 57°38' E 010°39'0 0.0
2019-Apr-19 18:53N 57°38' E 010°39'0 0.0
2019-Apr-19 18:23N 57°38' E 010°39'0 0.0
2019-Apr-19 17:56N 57°38' E 010°39'0 0.0
2019-Apr-19 17:29N 57°38' E 010°39'0 0.0
2019-Apr-19 16:59N 57°38' E 010°39'0 0.0
2019-Apr-19 16:29N 57°38' E 010°39'0 0.0
2019-Apr-19 15:59N 57°38' E 010°39'0 0.0
2019-Apr-19 15:29N 57°38' E 010°39'0 0.0
2019-Apr-19 14:59N 57°38' E 010°39'0 0.0
2019-Apr-19 14:29N 57°38' E 010°39'0 0.0
2019-Apr-19 13:59N 57°38' E 010°39'0 0.0
2019-Apr-19 13:29N 57°38' E 010°39'0 0.0
2019-Apr-19 12:59N 57°38' E 010°39'0 0.0
2019-Apr-19 12:26N 57°38' E 010°39'0 0.0
2019-Apr-19 11:59N 57°38' E 010°39'0 0.0
2019-Apr-19 11:29N 57°38' E 010°39'0 0.0
2019-Apr-19 10:59N 57°38' E 010°39'0 0.0
2019-Apr-19 10:29N 57°38' E 010°39'0 0.0
2019-Apr-19 09:59N 57°38' E 010°39'0 0.0
2019-Apr-19 09:29N 57°38' E 010°39'0 0.0
2019-Apr-19 08:59N 57°38' E 010°39'0 0.0
2019-Apr-19 08:29N 57°38' E 010°39'0 0.0
2019-Apr-19 07:59N 57°38' E 010°39'0 0.0
2019-Apr-19 07:29N 57°38' E 010°39'0 0.0
2019-Apr-19 06:59N 57°38' E 010°39'0 0.0
2019-Apr-19 06:29N 57°38' E 010°39'0 0.0
2019-Apr-19 05:59N 57°38' E 010°39'0 0.0
2019-Apr-19 05:29N 57°38' E 010°39'0 0.0
2019-Apr-19 04:53N 57°38' E 010°38'0 0.0
2019-Apr-19 04:26N 57°38' E 010°38'0 0.0
2019-Apr-19 03:58N 57°38' E 010°38'0 0.0
2019-Apr-19 03:29N 57°38' E 010°38'0 0.0
2019-Apr-19 02:59N 57°38' E 010°39'0 0.0
2019-Apr-19 02:28N 57°38' E 010°39'0 0.0
2019-Apr-19 01:59N 57°38' E 010°39'0 0.0
2019-Apr-19 01:29N 57°38' E 010°39'0 0.0
2019-Apr-19 00:59N 57°38' E 010°39'0 0.0
2019-Apr-19 00:29N 57°38' E 010°39'0 0.0
2019-Apr-18 23:58N 57°38' E 010°39'0 0.0
2019-Apr-18 23:29N 57°38' E 010°39'0 0.0
2019-Apr-18 22:53N 57°38' E 010°39'0 0.0
2019-Apr-18 22:26N 57°38' E 010°39'0 0.0
2019-Apr-18 21:53N 57°38' E 010°39'0 0.0
2019-Apr-18 21:29N 57°38' E 010°39'0 0.0
2019-Apr-18 20:53N 57°38' E 010°39'0 0.0
2019-Apr-18 20:23N 57°38' E 010°39'0 0.0
2019-Apr-18 19:59N 57°38' E 010°39'0 0.0
2019-Apr-18 19:29N 57°38' E 010°39'0 0.0
2019-Apr-18 18:59N 57°38' E 010°39'0 0.0
2019-Apr-18 18:29N 57°38' E 010°39'0 0.0
2019-Apr-18 17:49N 57°38' E 010°39'0 0.0
2019-Apr-18 17:29N 57°38' E 010°39'0 0.1
2019-Apr-18 17:00N 57°38' E 010°39'1 1.7
2019-Apr-18 16:30N 57°38' E 010°40'4 7.1
2019-Apr-18 16:00N 57°37' E 010°47'3 6.1
2019-Apr-18 15:30N 57°36' E 010°52'0 0.7
2019-Apr-18 15:00N 57°37' E 010°53'0 0.9
2019-Apr-18 14:29N 57°37' E 010°53'0 1.0
2019-Apr-18 14:00N 57°37' E 010°52'0 0.7
2019-Apr-18 13:30N 57°38' E 010°53'0 0.3
2019-Apr-18 12:59N 57°38' E 010°52'0 0.2
2019-Apr-18 12:29N 57°38' E 010°52'0 0.1
2019-Apr-18 12:00N 57°38' E 010°52'1 2.3
2019-Apr-18 11:30N 57°39' E 010°53'2 4.6
2019-Apr-18 11:00N 57°42' E 010°54'1 1.1
2019-Apr-18 10:30N 57°41' E 010°54'1 1.3
2019-Apr-18 09:59N 57°40' E 010°55'1 1.6
2019-Apr-18 09:30N 57°40' E 010°55'1 1.4
2019-Apr-18 09:01N 57°39' E 010°56'1 1.4
2019-Apr-18 08:30N 57°38' E 010°56'1 1.4
2019-Apr-18 07:59N 57°38' E 010°57'1 1.2
2019-Apr-18 07:30N 57°37' E 010°58'1 1.1
2019-Apr-18 06:59N 57°37' E 010°58'0 0.9
2019-Apr-18 06:30N 57°36' E 010°59'0 0.8
2019-Apr-18 06:01N 57°36' E 010°59'0 0.7
2019-Apr-18 05:30N 57°36' E 010°59'0 0.8
2019-Apr-18 05:00N 57°35' E 010°59'0 0.5
2019-Apr-18 04:31N 57°35' E 010°59'0 0.4
2019-Apr-18 04:00N 57°35' E 010°59'0 0.6
2019-Apr-18 03:29N 57°35' E 010°59'0 0.6
2019-Apr-18 03:00N 57°34' E 010°58'0 0.8
2019-Apr-18 02:29N 57°34' E 010°58'1 1.1
2019-Apr-18 02:00N 57°34' E 010°59'2 4.0
2019-Apr-18 01:30N 57°33' E 011°02'3 6.8
2019-Apr-18 01:00N 57°33' E 011°08'4 7.7
2019-Apr-18 00:31N 57°33' E 011°15'4 8.7
2019-Apr-18 00:00N 57°31' E 011°22'4 8.8
2019-Apr-17 23:30N 57°27' E 011°27'4 8.4
2019-Apr-17 23:00N 57°23' E 011°29'4 8.3
2019-Apr-17 22:30N 57°19' E 011°32'4 8.0
2019-Apr-17 22:00N 57°15' E 011°34'4 7.8
2019-Apr-17 21:30N 57°12' E 011°37'4 7.6
2019-Apr-17 20:59N 57°08' E 011°39'3 7.2
2019-Apr-17 20:30N 57°05' E 011°42'4 7.0
2019-Apr-17 19:59N 57°01' E 011°44'3 6.9
2019-Apr-17 19:30N 56°58' E 011°45'3 6.6
2019-Apr-17 18:58N 56°55' E 011°47'3 6.2
2019-Apr-17 18:25N 56°52' E 011°49'93 6.5
2019-Apr-17 04:11N 55°22' E 011°02'2 9.7
2019-Apr-17 04:00N 55°21' E 011°02'5 9.1
2019-Apr-17 03:30N 55°16' E 011°05'4 8.2
2019-Apr-17 03:01N 55°12' E 011°06'3 6.8
2019-Apr-17 02:30N 55°09' E 011°04'4 8.1
2019-Apr-17 02:01N 55°05' E 011°03'4 7.5
2019-Apr-17 01:30N 55°01' E 011°02'3 5.5
2019-Apr-17 01:00N 54°59' E 011°01'2 4.9
2019-Apr-17 00:30N 54°57' E 010°58'2 5.0
2019-Apr-17 00:00N 54°55' E 010°55'3 6.6
2019-Apr-16 23:30N 54°52' E 010°54'4 7.1
2019-Apr-16 23:00N 54°48' E 010°54'3 6.9
2019-Apr-16 22:30N 54°45' E 010°54'2 4.9
2019-Apr-16 22:00N 54°42' E 010°56'3 6.5
2019-Apr-16 21:30N 54°41' E 011°00'4 7.2
2019-Apr-16 21:00N 54°39' E 011°06'4 7.5
2019-Apr-16 20:30N 54°37' E 011°12'4 7.6
2019-Apr-16 19:59N 54°35' E 011°18'4 7.2
2019-Apr-16 19:30N 54°34' E 011°23'3 6.9
2019-Apr-16 19:00N 54°32' E 011°28'3 6.7
2019-Apr-16 18:29N 54°31' E 011°34'3 6.1
2019-Apr-16 18:00N 54°29' E 011°38'3 6.1
2019-Apr-16 17:31N 54°28' E 011°43'3 6.1
2019-Apr-16 17:00N 54°28' E 011°49'1 2.7
2019-Apr-16 16:30N 54°27' E 011°50'1 2.8
2019-Apr-16 16:00N 54°26' E 011°52'3 6.4
2019-Apr-16 15:30N 54°25' E 011°58'3 6.1
2019-Apr-16 15:00N 54°22' E 011°59'4 6.6
2019-Apr-16 14:27N 54°19' E 012°02'3 5.8
2019-Apr-16 13:59N 54°16' E 012°04'3 6.7
2019-Apr-16 13:28N 54°13' E 012°05'2 0.5
2019-Apr-16 08:29N 54°11' E 012°06'0 0.0
2019-Apr-16 07:59N 54°11' E 012°06'0 0.0
2019-Apr-16 06:55N 54°11' E 012°06'0 0.0
2019-Apr-16 06:29N 54°11' E 012°06'0 0.0
2019-Apr-16 05:56N 54°11' E 012°06'0 0.0
2019-Apr-16 03:56N 54°11' E 012°06'  
Track history (hours):
 
Tides and Currents Weather Stations Pressure Air Temp Water Temp Dewpoint Dewpoint Depression Visibility Wind Speed Wind Dir Waves Ship Positions

Sedov (Russia)

Last reported at 2019-Apr-26 03:31 UTC. Time now 2019-Apr-26 03:42 UTC.
Position N 54°45' E 013°19'.

Length 118 m; draft 6.4 m.

Type: Sailing vessel. MMSI: 273510000.

Date/timePositionNaut miles runAvg speedWind from/ knotsBaromVisibWave heightAir tempDewpointWater temp
2019-Apr-26 03:31N 54°45' E 013°19'1 1.3
2019-Apr-26 03:00N 54°45' E 013°20'1 1.2
2019-Apr-26 02:30N 54°45' E 013°21'1 1.1
2019-Apr-26 02:00N 54°46' E 013°21'0 0.9
2019-Apr-26 01:30N 54°46' E 013°22'0 0.9
2019-Apr-26 01:00N 54°47' E 013°22'0 0.8
2019-Apr-26 00:30N 54°47' E 013°23'0 0.9
2019-Apr-26 00:00N 54°47' E 013°23'0 0.8
2019-Apr-25 23:30N 54°47' E 013°24'0 0.8
2019-Apr-25 23:00N 54°47' E 013°25'0 0.9
2019-Apr-25 22:30N 54°47' E 013°26'0 0.9
2019-Apr-25 22:00N 54°48' E 013°26'1 1.2
2019-Apr-25 21:30N 54°48' E 013°27'1 1.7
2019-Apr-25 21:00N 54°49' E 013°28'1 2.2
2019-Apr-25 20:29N 54°48' E 013°29'3 6.7
2019-Apr-25 20:00N 54°45' E 013°26'1 1.2
2019-Apr-25 19:24N 54°44' E 013°27'0 1.1
2019-Apr-25 19:00N 54°44' E 013°27'1 1.1
2019-Apr-25 18:28N 54°44' E 013°28'0 0.9
2019-Apr-25 18:00N 54°44' E 013°29'0 0.7
2019-Apr-25 17:29N 54°45' E 013°30'0 0.6
2019-Apr-25 16:54N 54°45' E 013°30'21 1.2
2019-Apr-24 23:44N 54°43' E 012°53'2 5.5
2019-Apr-24 23:27N 54°43' E 012°51'2 5.6
2019-Apr-24 23:01N 54°43' E 012°46'3 5.3
2019-Apr-24 22:30N 54°43' E 012°42'2 5.1
2019-Apr-24 22:00N 54°43' E 012°37'2 4.4
2019-Apr-24 21:30N 54°42' E 012°34'1 1.4
2019-Apr-24 20:30N 54°41' E 012°35'1 1.2
2019-Apr-24 19:59N 54°40' E 012°36'1 1.2
2019-Apr-24 19:31N 54°40' E 012°36'2 4.3
2019-Apr-24 19:00N 54°39' E 012°33'3 5.1
2019-Apr-24 18:30N 54°37' E 012°29'3 5.1
2019-Apr-24 18:00N 54°36' E 012°25'3 5.7
2019-Apr-24 17:30N 54°36' E 012°20'4 3.5
2019-Apr-24 16:29N 54°36' E 012°14'1 2.1
2019-Apr-24 16:00N 54°35' E 012°14'1 2.8
2019-Apr-24 15:30N 54°34' E 012°15'2 2.2
2019-Apr-24 14:30N 54°32' E 012°16'1 2.0
2019-Apr-24 13:58N 54°31' E 012°16'1 2.3
2019-Apr-24 13:25N 54°30' E 012°17'2 3.7
2019-Apr-24 13:00N 54°28' E 012°15'1 1.5
2019-Apr-24 12:30N 54°28' E 012°14'1 2.4
2019-Apr-24 12:00N 54°27' E 012°13'4 3.2
2019-Apr-24 10:45N 54°24' E 012°08'1 5.5
2019-Apr-24 10:30N 54°24' E 012°05'5 5.8
2019-Apr-24 09:43N 54°25' E 011°57'1 5.4
2019-Apr-24 09:30N 54°25' E 011°55'3 5.8
2019-Apr-24 08:59N 54°25' E 011°50'3 5.7
2019-Apr-24 08:31N 54°25' E 011°46'3 5.7
2019-Apr-24 08:00N 54°25' E 011°41'6 6.0
2019-Apr-24 07:03N 54°26' E 011°31'0 5.4
2019-Apr-24 06:59N 54°26' E 011°30'1 1.4
2019-Apr-24 06:30N 54°26' E 011°29'1 1.4
2019-Apr-24 05:59N 54°26' E 011°30'1 1.4
2019-Apr-24 05:31N 54°25' E 011°31'1 1.3
2019-Apr-24 05:00N 54°25' E 011°32'1 1.3
2019-Apr-24 04:30N 54°25' E 011°33'1 1.3
2019-Apr-24 04:00N 54°24' E 011°33'1 1.3
2019-Apr-24 03:30N 54°24' E 011°34'1 1.3
2019-Apr-24 03:00N 54°23' E 011°35'1 1.4
2019-Apr-24 02:30N 54°22' E 011°35'1 1.3
2019-Apr-24 02:01N 54°22' E 011°36'1 1.6
2019-Apr-24 01:30N 54°21' E 011°36'1 1.6
2019-Apr-24 01:00N 54°20' E 011°37'1 1.5
2019-Apr-24 00:30N 54°20' E 011°37'1 1.5
2019-Apr-23 23:59N 54°19' E 011°38'0 0.7
2019-Apr-23 23:30N 54°19' E 011°37'3 5.5
2019-Apr-23 23:00N 54°21' E 011°34'3 5.8
2019-Apr-23 22:30N 54°23' E 011°31'3 4.9
2019-Apr-23 21:58N 54°25' E 011°28'0 1.1
2019-Apr-23 21:31N 54°25' E 011°29'1 2.0
2019-Apr-23 21:00N 54°24' E 011°30'1 2.0
2019-Apr-23 20:27N 54°24' E 011°31'1 2.0
2019-Apr-23 19:59N 54°23' E 011°32'2 1.9
2019-Apr-23 19:04N 54°21' E 011°33'0 1.9
2019-Apr-23 19:00N 54°21' E 011°33'1 2.0
2019-Apr-23 18:30N 54°20' E 011°34'1 1.8
2019-Apr-23 17:59N 54°19' E 011°35'1 1.9
2019-Apr-23 17:30N 54°19' E 011°36'2 3.8
2019-Apr-23 16:55N 54°19' E 011°32'2 4.8
2019-Apr-23 16:29N 54°20' E 011°29'2 4.1
2019-Apr-23 16:01N 54°21' E 011°26'2 3.9
2019-Apr-23 15:30N 54°22' E 011°23'1 1.2
2019-Apr-23 14:59N 54°21' E 011°23'1 2.4
2019-Apr-23 14:29N 54°21' E 011°25'1 2.0
2019-Apr-23 14:00N 54°20' E 011°27'1 1.9
2019-Apr-23 13:30N 54°20' E 011°29'1 1.8
2019-Apr-23 13:01N 54°20' E 011°30'1 1.7
2019-Apr-23 12:30N 54°20' E 011°32'1 1.6
2019-Apr-23 12:00N 54°20' E 011°33'1 1.6
2019-Apr-23 11:30N 54°20' E 011°34'1 1.6
2019-Apr-23 11:01N 54°20' E 011°35'1 1.6
2019-Apr-23 10:30N 54°19' E 011°37'1 1.7
2019-Apr-23 10:00N 54°19' E 011°38'1 1.7
2019-Apr-23 09:30N 54°19' E 011°40'5 3.5
2019-Apr-23 08:12N 54°19' E 011°32'1 4.3
2019-Apr-23 07:53N 54°19' E 011°30'2 4.1
2019-Apr-23 07:30N 54°19' E 011°27'2 4.0
2019-Apr-23 07:00N 54°19' E 011°23'1 1.1
2019-Apr-23 06:30N 54°19' E 011°23'1 1.2
2019-Apr-23 06:00N 54°19' E 011°24'1 1.2
2019-Apr-23 05:31N 54°20' E 011°24'1 1.2
2019-Apr-23 05:00N 54°20' E 011°25'1 1.2
2019-Apr-23 04:31N 54°20' E 011°26'1 1.2
2019-Apr-23 04:00N 54°20' E 011°27'1 1.2
2019-Apr-23 03:30N 54°20' E 011°28'1 1.2
2019-Apr-23 02:59N 54°21' E 011°29'1 1.2
2019-Apr-23 02:30N 54°21' E 011°30'1 1.5
2019-Apr-23 02:00N 54°21' E 011°31'1 1.9
2019-Apr-23 01:30N 54°22' E 011°32'3 5.9
2019-Apr-23 00:59N 54°19' E 011°33'3 5.3
2019-Apr-23 00:30N 54°16' E 011°34'1 2.1
2019-Apr-23 00:01N 54°16' E 011°36'1 1.7
2019-Apr-22 23:30N 54°17' E 011°37'2 3.2
2019-Apr-22 23:00N 54°18' E 011°39'2 3.0
2019-Apr-22 22:30N 54°19' E 011°41'1 2.3
2019-Apr-22 22:00N 54°19' E 011°43'1 2.2
2019-Apr-22 21:30N 54°18' E 011°44'1 2.0
2019-Apr-22 21:00N 54°17' E 011°45'1 2.1
2019-Apr-22 20:30N 54°17' E 011°47'2 1.7
2019-Apr-22 19:30N 54°16' E 011°49'1 1.5
2019-Apr-22 18:59N 54°16' E 011°50'1 1.6
2019-Apr-22 18:30N 54°16' E 011°52'1 1.5
2019-Apr-22 18:00N 54°16' E 011°53'1 1.5
2019-Apr-22 17:30N 54°16' E 011°54'1 1.5
2019-Apr-22 17:00N 54°16' E 011°56'1 1.5
2019-Apr-22 16:30N 54°16' E 011°57'5 3.2
2019-Apr-22 15:00N 54°12' E 012°02'2 4.5
2019-Apr-22 14:30N 54°12' E 011°58'1 1.8
2019-Apr-22 14:00N 54°13' E 011°57'2 1.2
2019-Apr-22 12:45N 54°14' E 011°59'1 1.9
2019-Apr-22 12:28N 54°14' E 011°60'7 4.3
2019-Apr-22 10:57N 54°17' E 011°50'3 6.2
2019-Apr-22 10:29N 54°18' E 011°45'3 6.4
2019-Apr-22 09:59N 54°20' E 011°40'3 6.1
2019-Apr-22 09:30N 54°21' E 011°35'1 1.2
2019-Apr-22 08:59N 54°21' E 011°34'0 0.4
2019-Apr-22 08:30N 54°21' E 011°35'0 0.5
2019-Apr-22 08:00N 54°21' E 011°35'0 0.5
2019-Apr-22 07:30N 54°21' E 011°36'0 0.5
2019-Apr-22 07:00N 54°21' E 011°36'0 0.5
2019-Apr-22 06:29N 54°21' E 011°36'0 0.4
2019-Apr-22 05:58N 54°21' E 011°37'0 0.5
2019-Apr-22 05:30N 54°21' E 011°37'0 0.5
2019-Apr-22 04:59N 54°21' E 011°37'0 0.5
2019-Apr-22 04:30N 54°21' E 011°38'0 0.5
2019-Apr-22 04:00N 54°21' E 011°38'0 0.4
2019-Apr-22 03:30N 54°21' E 011°39'0 0.3
2019-Apr-22 03:00N 54°21' E 011°39'0 0.4
2019-Apr-22 02:30N 54°21' E 011°39'0 0.6
2019-Apr-22 02:00N 54°21' E 011°40'0 0.6
2019-Apr-22 01:29N 54°21' E 011°40'0 0.7
2019-Apr-22 00:59N 54°21' E 011°41'0 0.7
2019-Apr-22 00:30N 54°22' E 011°42'0 0.8
2019-Apr-22 00:00N 54°22' E 011°42'0 0.8
2019-Apr-21 23:30N 54°22' E 011°43'0 0.7
2019-Apr-21 23:00N 54°22' E 011°43'0 0.7
2019-Apr-21 22:30N 54°22' E 011°44'0 0.7
2019-Apr-21 21:59N 54°22' E 011°44'0 0.6
2019-Apr-21 21:30N 54°23' E 011°45'0 0.7
2019-Apr-21 21:00N 54°23' E 011°45'1 1.0
2019-Apr-21 20:30N 54°23' E 011°46'2 4.8
2019-Apr-21 20:00N 54°23' E 011°42'3 6.6
2019-Apr-21 19:30N 54°25' E 011°37'4 7.0
2019-Apr-21 19:00N 54°27' E 011°32'3 6.9
2019-Apr-21 18:30N 54°29' E 011°28'3 6.7
2019-Apr-21 17:59N 54°31' E 011°23'3 7.1
2019-Apr-21 17:30N 54°33' E 011°17'4 7.1
2019-Apr-21 17:00N 54°34' E 011°12'4 7.2
2019-Apr-21 16:30N 54°36' E 011°06'4 7.6
2019-Apr-21 16:00N 54°38' E 011°01'4 7.8
2019-Apr-21 15:29N 54°41' E 010°56'3 7.2
2019-Apr-21 15:00N 54°43' E 010°52'4 8.1
2019-Apr-21 14:30N 54°48' E 010°52'4 8.4
2019-Apr-21 14:00N 54°52' E 010°52'4 8.2
2019-Apr-21 13:30N 54°56' E 010°55'4 8.5
2019-Apr-21 13:00N 54°59' E 010°60'4 7.9
2019-Apr-21 12:30N 55°03' E 011°01'4 7.7
2019-Apr-21 12:00N 55°06' E 011°02'4 7.4
2019-Apr-21 11:30N 55°10' E 011°03'4 7.2
2019-Apr-21 10:59N 55°13' E 011°06'4 7.5
2019-Apr-21 10:29N 55°17' E 011°03'4 7.3
2019-Apr-21 09:59N 55°21' E 011°02'100 6.5
2019-Apr-20 18:37N 56°58' E 011°44'4 7.9
2019-Apr-20 18:04N 57°02' E 011°41'1 8.2
2019-Apr-20 18:00N 57°02' E 011°40'4 8.2
2019-Apr-20 17:30N 57°06' E 011°38'4 7.9
2019-Apr-20 16:59N 57°10' E 011°35'4 7.7
2019-Apr-20 16:30N 57°13' E 011°33'4 7.3
2019-Apr-20 16:00N 57°17' E 011°31'4 7.3
2019-Apr-20 15:30N 57°20' E 011°28'4 7.3
2019-Apr-20 14:59N 57°24' E 011°26'4 7.3
2019-Apr-20 14:30N 57°27' E 011°23'4 7.2
2019-Apr-20 14:00N 57°29' E 011°18'3 6.9
2019-Apr-20 13:30N 57°30' E 011°12'3 6.9
2019-Apr-20 13:00N 57°32' E 011°06'3 6.8
2019-Apr-20 12:30N 57°33' E 010°60'0 0.7
2019-Apr-20 12:00N 57°33' E 010°59'0 0.7
2019-Apr-20 11:30N 57°33' E 010°60'2 4.6
2019-Apr-20 10:59N 57°34' E 010°56'3 6.9
2019-Apr-20 10:30N 57°35' E 010°50'4 7.3
2019-Apr-20 09:59N 57°36' E 010°43'3 6.2
2019-Apr-20 09:30N 57°38' E 010°39'0 0.7
2019-Apr-20 08:59N 57°38' E 010°39'0 0.0
2019-Apr-20 08:29N 57°38' E 010°39'0 0.0
2019-Apr-20 07:53N 57°38' E 010°39'0 0.0
2019-Apr-20 07:29N 57°38' E 010°39'0 0.0
2019-Apr-20 06:59N 57°38' E 010°39'0 0.0
2019-Apr-20 06:29N 57°38' E 010°39'0 0.0
2019-Apr-20 05:59N 57°38' E 010°39'0 0.0
2019-Apr-20 05:26N 57°38' E 010°39'0 0.0
2019-Apr-20 04:56N 57°38' E 010°39'0 0.0
2019-Apr-20 04:29N 57°38' E 010°39'0 0.0
2019-Apr-20 03:59N 57°38' E 010°39'0 0.0
2019-Apr-20 03:29N 57°38' E 010°39'0 0.0
2019-Apr-20 02:59N 57°38' E 010°39'0 0.0
2019-Apr-20 02:29N 57°38' E 010°39'0 0.0
2019-Apr-20 01:59N 57°38' E 010°39'0 0.0
2019-Apr-20 01:28N 57°38' E 010°39'0 0.0
2019-Apr-20 00:59N 57°38' E 010°39'0 0.0
2019-Apr-20 00:28N 57°38' E 010°39'0 0.0
2019-Apr-19 23:59N 57°38' E 010°39'0 0.0
2019-Apr-19 23:29N 57°38' E 010°39'0 0.0
2019-Apr-19 22:59N 57°38' E 010°39'0 0.0
2019-Apr-19 22:29N 57°38' E 010°39'0 0.0
2019-Apr-19 21:59N 57°38' E 010°39'0 0.0
2019-Apr-19 21:29N 57°38' E 010°39'0 0.0
2019-Apr-19 20:59N 57°38' E 010°39'0 0.0
2019-Apr-19 20:29N 57°38' E 010°39'0 0.0
2019-Apr-19 19:59N 57°38' E 010°39'0 0.0
2019-Apr-19 19:29N 57°38' E 010°39'0 0.0
2019-Apr-19 18:53N 57°38' E 010°39'0 0.0
2019-Apr-19 18:23N 57°38' E 010°39'0 0.0
2019-Apr-19 17:56N 57°38' E 010°39'0 0.0
2019-Apr-19 17:29N 57°38' E 010°39'0 0.0
2019-Apr-19 16:59N 57°38' E 010°39'0 0.0
2019-Apr-19 16:29N 57°38' E 010°39'0 0.0
2019-Apr-19 15:59N 57°38' E 010°39'0 0.0
2019-Apr-19 15:29N 57°38' E 010°39'0 0.0
2019-Apr-19 14:59N 57°38' E 010°39'0 0.0
2019-Apr-19 14:29N 57°38' E 010°39'0 0.0
2019-Apr-19 13:59N 57°38' E 010°39'0 0.0
2019-Apr-19 13:29N 57°38' E 010°39'0 0.0
2019-Apr-19 12:59N 57°38' E 010°39'0 0.0
2019-Apr-19 12:26N 57°38' E 010°39'0 0.0
2019-Apr-19 11:59N 57°38' E 010°39'0 0.0
2019-Apr-19 11:29N 57°38' E 010°39'0 0.0
2019-Apr-19 10:59N 57°38' E 010°39'0 0.0
2019-Apr-19 10:29N 57°38' E 010°39'0 0.0
2019-Apr-19 09:59N 57°38' E 010°39'0 0.0
2019-Apr-19 09:29N 57°38' E 010°39'0 0.0
2019-Apr-19 08:59N 57°38' E 010°39'0 0.0
2019-Apr-19 08:29N 57°38' E 010°39'0 0.0
2019-Apr-19 07:59N 57°38' E 010°39'0 0.0
2019-Apr-19 07:29N 57°38' E 010°39'0 0.0
2019-Apr-19 06:59N 57°38' E 010°39'0 0.0
2019-Apr-19 06:29N 57°38' E 010°39'0 0.0
2019-Apr-19 05:59N 57°38' E 010°39'0 0.0
2019-Apr-19 05:29N 57°38' E 010°39'0 0.0
2019-Apr-19 04:53N 57°38' E 010°38'0 0.0
2019-Apr-19 04:26N 57°38' E 010°38'0 0.0
2019-Apr-19 03:58N 57°38' E 010°38'0 0.0
2019-Apr-19 03:29N 57°38' E 010°38'0 0.0
2019-Apr-19 02:59N 57°38' E 010°39'0 0.0
2019-Apr-19 02:28N 57°38' E 010°39'0 0.0
2019-Apr-19 01:59N 57°38' E 010°39'0 0.0
2019-Apr-19 01:29N 57°38' E 010°39'0 0.0
2019-Apr-19 00:59N 57°38' E 010°39'0 0.0
2019-Apr-19 00:29N 57°38' E 010°39'0 0.0
2019-Apr-18 23:58N 57°38' E 010°39'0 0.0
2019-Apr-18 23:29N 57°38' E 010°39'0 0.0
2019-Apr-18 22:53N 57°38' E 010°39'0 0.0
2019-Apr-18 22:26N 57°38' E 010°39'0 0.0
2019-Apr-18 21:53N 57°38' E 010°39'0 0.0
2019-Apr-18 21:29N 57°38' E 010°39'0 0.0
2019-Apr-18 20:53N 57°38' E 010°39'0 0.0
2019-Apr-18 20:23N 57°38' E 010°39'0 0.0
2019-Apr-18 19:59N 57°38' E 010°39'0 0.0
2019-Apr-18 19:29N 57°38' E 010°39'0 0.0
2019-Apr-18 18:59N 57°38' E 010°39'0 0.0
2019-Apr-18 18:29N 57°38' E 010°39'0 0.0
2019-Apr-18 17:49N 57°38' E 010°39'0 0.0
2019-Apr-18 17:29N 57°38' E 010°39'0 0.1
2019-Apr-18 17:00N 57°38' E 010°39'1 1.7
2019-Apr-18 16:30N 57°38' E 010°40'4 7.1
2019-Apr-18 16:00N 57°37' E 010°47'3 6.1
2019-Apr-18 15:30N 57°36' E 010°52'0 0.7
2019-Apr-18 15:00N 57°37' E 010°53'0 0.9
2019-Apr-18 14:29N 57°37' E 010°53'0 1.0
2019-Apr-18 14:00N 57°37' E 010°52'0 0.7
2019-Apr-18 13:30N 57°38' E 010°53'0 0.3
2019-Apr-18 12:59N 57°38' E 010°52'0 0.2
2019-Apr-18 12:29N 57°38' E 010°52'0 0.1
2019-Apr-18 12:00N 57°38' E 010°52'1 2.3
2019-Apr-18 11:30N 57°39' E 010°53'2 4.6
2019-Apr-18 11:00N 57°42' E 010°54'1 1.1
2019-Apr-18 10:30N 57°41' E 010°54'1 1.3
2019-Apr-18 09:59N 57°40' E 010°55'1 1.6
2019-Apr-18 09:30N 57°40' E 010°55'1 1.4
2019-Apr-18 09:01N 57°39' E 010°56'1 1.4
2019-Apr-18 08:30N 57°38' E 010°56'1 1.4
2019-Apr-18 07:59N 57°38' E 010°57'1 1.2
2019-Apr-18 07:30N 57°37' E 010°58'1 1.1
2019-Apr-18 06:59N 57°37' E 010°58'0 0.9
2019-Apr-18 06:30N 57°36' E 010°59'0 0.8
2019-Apr-18 06:01N 57°36' E 010°59'0 0.7
2019-Apr-18 05:30N 57°36' E 010°59'0 0.8
2019-Apr-18 05:00N 57°35' E 010°59'0 0.5
2019-Apr-18 04:31N 57°35' E 010°59'0 0.4
2019-Apr-18 04:00N 57°35' E 010°59'0 0.6
2019-Apr-18 03:29N 57°35' E 010°59'0 0.6
2019-Apr-18 03:00N 57°34' E 010°58'0 0.8
2019-Apr-18 02:29N 57°34' E 010°58'1 1.1
2019-Apr-18 02:00N 57°34' E 010°59'2 4.0
2019-Apr-18 01:30N 57°33' E 011°02'3 6.8
2019-Apr-18 01:00N 57°33' E 011°08'4 7.7
2019-Apr-18 00:31N 57°33' E 011°15'4 8.7
2019-Apr-18 00:00N 57°31' E 011°22'4 8.8
2019-Apr-17 23:30N 57°27' E 011°27'4 8.4
2019-Apr-17 23:00N 57°23' E 011°29'4 8.3
2019-Apr-17 22:30N 57°19' E 011°32'4 8.0
2019-Apr-17 22:00N 57°15' E 011°34'4 7.8
2019-Apr-17 21:30N 57°12' E 011°37'4 7.6
2019-Apr-17 20:59N 57°08' E 011°39'3 7.2
2019-Apr-17 20:30N 57°05' E 011°42'4 7.0
2019-Apr-17 19:59N 57°01' E 011°44'3 6.9
2019-Apr-17 19:30N 56°58' E 011°45'3 6.6
2019-Apr-17 18:58N 56°55' E 011°47'3 6.2
2019-Apr-17 18:25N 56°52' E 011°49'93 6.5
2019-Apr-17 04:11N 55°22' E 011°02'2 9.7
2019-Apr-17 04:00N 55°21' E 011°02'5 9.1
2019-Apr-17 03:30N 55°16' E 011°05'4 8.2
2019-Apr-17 03:01N 55°12' E 011°06'3 6.8
2019-Apr-17 02:30N 55°09' E 011°04'4 8.1
2019-Apr-17 02:01N 55°05' E 011°03'4 7.5
2019-Apr-17 01:30N 55°01' E 011°02'3 5.5
2019-Apr-17 01:00N 54°59' E 011°01'2 4.9
2019-Apr-17 00:30N 54°57' E 010°58'2 5.0
2019-Apr-17 00:00N 54°55' E 010°55'3 6.6
2019-Apr-16 23:30N 54°52' E 010°54'4 7.1
2019-Apr-16 23:00N 54°48' E 010°54'3 6.9
2019-Apr-16 22:30N 54°45' E 010°54'2 4.9
2019-Apr-16 22:00N 54°42' E 010°56'3 6.5
2019-Apr-16 21:30N 54°41' E 011°00'4 7.2
2019-Apr-16 21:00N 54°39' E 011°06'4 7.5
2019-Apr-16 20:30N 54°37' E 011°12'4 7.6
2019-Apr-16 19:59N 54°35' E 011°18'4 7.2
2019-Apr-16 19:30N 54°34' E 011°23'3 6.9
2019-Apr-16 19:00N 54°32' E 011°28'3 6.7
2019-Apr-16 18:29N 54°31' E 011°34'3 6.1
2019-Apr-16 18:00N 54°29' E 011°38'3 6.1
2019-Apr-16 17:31N 54°28' E 011°43'3 6.1
2019-Apr-16 17:00N 54°28' E 011°49'1 2.7
2019-Apr-16 16:30N 54°27' E 011°50'1 2.8
2019-Apr-16 16:00N 54°26' E 011°52'3 6.4
2019-Apr-16 15:30N 54°25' E 011°58'3 6.1
2019-Apr-16 15:00N 54°22' E 011°59'4 6.6
2019-Apr-16 14:27N 54°19' E 012°02'3 5.8
2019-Apr-16 13:59N 54°16' E 012°04'3 6.7
2019-Apr-16 13:28N 54°13' E 012°05'2 0.5
2019-Apr-16 08:29N 54°11' E 012°06'0 0.0
2019-Apr-16 07:59N 54°11' E 012°06'0 0.0
2019-Apr-16 06:55N 54°11' E 012°06'0 0.0
2019-Apr-16 06:29N 54°11' E 012°06'0 0.0
2019-Apr-16 05:56N 54°11' E 012°06'0 0.0
2019-Apr-16 03:56N 54°11' E 012°06'  

Dump ship's entire track history